createdAt,value
2022-11-20T00:01:28.148Z,47.33
2022-11-20T00:03:57.751Z,51.78
2022-11-20T00:06:26.773Z,43.78
2022-11-20T00:08:57.913Z,53.85
2022-11-20T00:11:28.125Z,60.42
2022-11-20T00:13:59.161Z,65.70
2022-11-20T00:16:29.910Z,71.75
2022-11-20T00:18:58.188Z,57.05
2022-11-20T00:21:28.557Z,62.13
2022-11-20T00:23:58.228Z,49.65
2022-11-20T00:26:27.936Z,39.10
2022-11-20T00:29:00.120Z,47.15
2022-11-20T00:31:29.158Z,46.95
2022-11-20T00:33:57.686Z,50.88
2022-11-20T00:36:28.293Z,40.70
2022-11-20T00:38:58.809Z,49.78
2022-11-20T00:41:28.481Z,53.42
2022-11-20T00:43:57.596Z,64.88
2022-11-20T00:46:28.751Z,58.00
2022-11-20T00:48:57.242Z,49.55
2022-11-20T00:51:27.743Z,48.20
2022-11-20T00:54:00.176Z,64.53
2022-11-20T00:56:28.820Z,59.28
2022-11-20T00:58:57.330Z,60.53
2022-11-20T01:01:27.483Z,53.63
2022-11-20T01:03:57.923Z,47.15
2022-11-20T01:06:35.288Z,59.17
2022-11-20T01:09:16.300Z,66.93
2022-11-20T01:11:46.222Z,49.55
2022-11-20T01:14:17.375Z,58.35
2022-11-20T01:16:48.233Z,49.88
2022-11-20T01:19:20.845Z,46.88
2022-11-20T01:21:52.752Z,60.20
2022-11-20T01:24:23.151Z,48.47
2022-11-20T01:26:52.465Z,50.63
2022-11-20T01:29:23.903Z,44.97
2022-11-20T01:31:52.943Z,37.78
2022-11-20T01:34:22.823Z,46.25
2022-11-20T01:36:51.656Z,35.25
2022-11-20T01:39:23.360Z,24.90
2022-11-20T01:41:53.239Z,16.98
2022-11-20T01:44:43.908Z,15.80
2022-11-20T01:47:16.573Z,17.73
2022-11-20T01:49:52.164Z,19.20
2022-11-20T01:52:38.043Z,17.90
2022-11-20T01:55:10.562Z,19.88
2022-11-20T01:57:40.541Z,17.83
2022-11-20T02:00:15.109Z,20.08
2022-11-20T02:02:49.399Z,18.70
2022-11-20T02:05:29.421Z,17.25
2022-11-20T02:08:00.645Z,24.67
2022-11-20T02:10:29.720Z,20.07
2022-11-20T02:12:58.254Z,20.80
2022-11-20T02:15:30.263Z,27.83
2022-11-20T02:17:59.007Z,21.25
2022-11-20T02:20:28.020Z,22.25
2022-11-20T02:23:12.852Z,24.85
2022-11-20T02:25:42.803Z,16.15
2022-11-20T02:28:11.791Z,18.63
2022-11-20T02:30:39.981Z,26.60
2022-11-20T02:33:08.111Z,24.65
2022-11-20T02:35:36.264Z,25.25
2022-11-20T02:38:04.792Z,22.30
2022-11-20T02:40:33.070Z,26.98
2022-11-20T02:43:01.092Z,41.30
2022-11-20T02:45:29.253Z,43.40
2022-11-20T02:47:57.721Z,44.53
2022-11-20T02:50:25.772Z,43.60
2022-11-20T02:52:53.897Z,48.70
2022-11-20T02:55:22.098Z,39.22
2022-11-20T02:57:50.236Z,39.60
2022-11-20T03:00:18.512Z,40.22
2022-11-20T03:02:46.827Z,36.85
2022-11-20T03:05:15.024Z,37.28
2022-11-20T03:07:44.624Z,40.30
2022-11-20T03:10:12.921Z,32.58
2022-11-20T03:12:41.174Z,34.25
2022-11-20T03:15:09.875Z,35.53
2022-11-20T03:17:38.053Z,35.88
2022-11-20T03:20:07.274Z,34.17
2022-11-20T03:22:35.445Z,33.38
2022-11-20T03:25:03.824Z,32.67
2022-11-20T03:27:36.162Z,33.08
2022-11-20T03:30:04.866Z,30.05
2022-11-20T03:32:33.195Z,47.42
2022-11-20T03:35:01.335Z,38.22
2022-11-20T03:37:29.470Z,37.72
2022-11-20T03:39:57.685Z,28.63
2022-11-20T03:42:25.746Z,33.20
2022-11-20T03:44:54.028Z,33.35
2022-11-20T03:47:22.256Z,34.85
2022-11-20T03:49:50.570Z,28.70
2022-11-20T03:52:18.826Z,30.15
2022-11-20T03:54:46.870Z,29.73
2022-11-20T03:57:15.168Z,31.88
2022-11-20T03:59:43.316Z,29.02
2022-11-20T04:02:11.441Z,30.98
2022-11-20T04:04:39.694Z,27.90
2022-11-20T04:07:07.940Z,30.42
2022-11-20T04:09:36.105Z,29.40
2022-11-20T04:12:04.331Z,29.48
2022-11-20T04:14:32.423Z,32.58
2022-11-20T04:17:00.668Z,31.13
2022-11-20T04:19:28.883Z,30.25
2022-11-20T04:21:56.932Z,32.17
2022-11-20T04:24:25.266Z,40.47
2022-11-20T04:26:53.431Z,26.58
2022-11-20T04:29:21.816Z,32.58
2022-11-20T04:31:50.093Z,27.95
2022-11-20T04:34:18.358Z,28.50
2022-11-20T04:36:46.629Z,32.35
2022-11-20T04:39:15.729Z,26.10
2022-11-20T04:41:44.135Z,33.83
2022-11-20T04:44:12.521Z,32.15
2022-11-20T04:46:44.282Z,31.08
2022-11-20T04:49:13.117Z,24.80
2022-11-20T04:51:41.201Z,29.80
2022-11-20T04:54:10.971Z,27.70
2022-11-20T04:56:39.336Z,27.20
2022-11-20T04:59:07.481Z,27.20
2022-11-20T05:01:35.939Z,28.40
2022-11-20T05:04:03.959Z,31.70
2022-11-20T05:06:32.185Z,28.75
2022-11-20T05:09:00.623Z,34.13
2022-11-20T05:11:28.805Z,28.15
2022-11-20T05:13:59.699Z,29.27
2022-11-20T05:16:27.835Z,25.80
2022-11-20T05:18:56.787Z,29.35
2022-11-20T05:21:24.876Z,24.33
2022-11-20T05:23:53.303Z,29.33
2022-11-20T05:26:23.432Z,30.55
2022-11-20T05:28:52.693Z,27.65
2022-11-20T05:31:27.723Z,31.95
2022-11-20T05:33:58.278Z,26.83
2022-11-20T05:36:26.880Z,24.58
2022-11-20T05:39:00.977Z,29.35
2022-11-20T05:41:29.727Z,32.00
2022-11-20T05:43:58.609Z,31.70
2022-11-20T05:46:29.079Z,24.90
2022-11-20T05:48:59.158Z,25.83
2022-11-20T05:51:28.137Z,31.80
2022-11-20T05:53:58.597Z,25.35
2022-11-20T05:56:26.999Z,31.85
2022-11-20T05:58:55.162Z,28.35
2022-11-20T06:01:25.529Z,26.10
2022-11-20T06:03:55.414Z,29.38
2022-11-20T06:06:24.145Z,24.40
2022-11-20T06:08:52.364Z,29.92
2022-11-20T06:11:20.728Z,25.85
2022-11-20T06:13:49.424Z,23.80
2022-11-20T06:16:20.193Z,27.92
2022-11-20T06:18:49.256Z,26.48
2022-11-20T06:21:19.578Z,27.50
2022-11-20T06:23:48.384Z,29.10
2022-11-20T06:26:20.065Z,29.48
2022-11-20T06:28:48.429Z,28.73
2022-11-20T06:31:19.132Z,32.50
2022-11-20T06:33:47.355Z,26.15
2022-11-20T06:36:16.927Z,29.90
2022-11-20T06:38:45.144Z,35.35
2022-11-20T06:41:16.638Z,31.52
2022-11-20T06:43:45.195Z,28.63
2022-11-20T06:46:14.635Z,41.22
2022-11-20T06:48:42.791Z,54.00
2022-11-20T06:51:11.419Z,45.85
2022-11-20T06:53:39.651Z,51.47
2022-11-20T06:56:08.818Z,37.50
2022-11-20T06:58:38.128Z,39.50
2022-11-20T07:01:14.314Z,41.40
2022-11-20T07:03:42.937Z,35.60
2022-11-20T07:06:11.498Z,37.38
2022-11-20T07:08:39.950Z,38.13
2022-11-20T07:11:09.508Z,31.75
2022-11-20T07:13:37.761Z,34.65
2022-11-20T07:16:08.612Z,34.75
2022-11-20T07:18:37.552Z,38.20
2022-11-20T07:21:08.872Z,30.55
2022-11-20T07:23:37.419Z,34.30
2022-11-20T07:26:07.815Z,37.03
2022-11-20T07:28:36.160Z,35.50
2022-11-20T07:31:04.935Z,36.35
2022-11-20T07:33:33.166Z,35.85
2022-11-20T07:36:01.657Z,37.83
2022-11-20T07:38:30.226Z,38.45
2022-11-20T07:40:58.932Z,44.47
2022-11-20T07:43:27.507Z,34.35
2022-11-20T07:45:59.986Z,31.98
2022-11-20T07:48:28.391Z,29.27
2022-11-20T07:50:57.498Z,33.92
2022-11-20T07:53:25.768Z,41.03
2022-11-20T07:56:06.580Z,36.70
2022-11-20T07:58:34.923Z,36.88
2022-11-20T08:01:08.384Z,43.17
2022-11-20T08:03:37.315Z,37.70
2022-11-20T08:06:06.077Z,36.78
2022-11-20T08:08:36.075Z,41.15
2022-11-20T08:11:06.636Z,31.17
2022-11-20T08:13:34.932Z,35.53
2022-11-20T08:16:03.239Z,34.97
2022-11-20T08:18:32.689Z,40.83
2022-11-20T08:21:05.838Z,34.05
2022-11-20T08:23:34.065Z,34.70
2022-11-20T08:26:02.388Z,34.22
2022-11-20T08:28:30.820Z,37.35
2022-11-20T08:31:03.152Z,43.58
2022-11-20T08:33:32.237Z,50.20
2022-11-20T08:36:02.175Z,45.67
2022-11-20T08:38:30.853Z,40.72
2022-11-20T08:41:03.689Z,38.05
2022-11-20T08:43:31.852Z,40.10
2022-11-20T08:46:00.810Z,39.28
2022-11-20T08:48:29.048Z,42.33
2022-11-20T08:51:00.292Z,55.50
2022-11-20T08:53:29.482Z,55.88
2022-11-20T08:55:58.877Z,51.47
2022-11-20T08:58:27.782Z,51.65
2022-11-20T09:00:56.107Z,58.58
2022-11-20T09:03:28.595Z,50.40
2022-11-20T09:06:00.993Z,50.22
2022-11-20T09:08:30.366Z,39.58
2022-11-20T09:10:59.360Z,43.40
2022-11-20T09:13:29.099Z,42.78
2022-11-20T09:15:58.613Z,36.20
2022-11-20T09:18:27.761Z,37.00
2022-11-20T09:21:03.477Z,42.95
2022-11-20T09:23:36.607Z,45.50
2022-11-20T09:26:06.825Z,41.10
2022-11-20T09:28:35.091Z,42.13
2022-11-20T09:31:10.784Z,32.95
2022-11-20T09:33:39.070Z,37.08
2022-11-20T09:36:07.397Z,35.22
2022-11-20T09:38:35.597Z,39.25
2022-11-20T09:41:05.143Z,33.53
2022-11-20T09:43:59.825Z,29.67
2022-11-20T09:46:39.951Z,30.75
2022-11-20T09:49:58.713Z,28.75
2022-11-20T09:52:54.219Z,28.95
2022-11-20T09:55:23.006Z,26.35
2022-11-20T09:57:53.605Z,34.55
2022-11-20T10:00:21.887Z,57.65
2022-11-20T10:03:01.297Z,26.25
2022-11-20T10:05:52.665Z,24.17
2022-11-20T10:08:30.508Z,24.60
2022-11-20T10:11:16.652Z,22.85
2022-11-20T10:14:13.035Z,33.40
2022-11-20T10:17:03.945Z,26.23
2022-11-20T10:19:56.806Z,28.25
2022-11-20T10:23:02.413Z,29.30
2022-11-20T10:25:44.901Z,40.78
2022-11-20T10:28:29.063Z,25.20
2022-11-20T10:31:11.630Z,23.58
2022-11-20T10:34:13.205Z,24.77
2022-11-20T10:36:44.128Z,20.77
2022-11-20T10:39:22.681Z,24.90
2022-11-20T10:41:54.051Z,21.58
2022-11-20T10:44:27.928Z,19.40
2022-11-20T10:46:56.488Z,22.85
2022-11-20T10:49:24.697Z,23.25
2022-11-20T10:52:09.012Z,22.25
2022-11-20T10:54:55.777Z,31.90
2022-11-20T10:57:42.466Z,27.92
2022-11-20T11:00:12.783Z,33.08
2022-11-20T11:02:50.473Z,26.02
2022-11-20T11:05:40.349Z,21.92
2022-11-20T11:08:17.822Z,22.65
2022-11-20T11:10:54.770Z,27.10
2022-11-20T11:13:28.526Z,27.02
2022-11-20T11:15:57.499Z,24.92
2022-11-20T11:18:29.773Z,28.52
2022-11-20T11:21:00.750Z,30.85
2022-11-20T11:23:37.120Z,34.47
2022-11-20T11:26:08.760Z,27.90
2022-11-20T11:28:37.056Z,29.33
2022-11-20T11:31:05.112Z,28.33
2022-11-20T11:33:34.237Z,28.25
2022-11-20T11:36:05.118Z,17.40
2022-11-20T11:38:44.630Z,20.38
2022-11-20T11:41:19.689Z,22.48
2022-11-20T11:43:59.578Z,23.52
2022-11-20T11:46:36.325Z,17.92
2022-11-20T11:49:10.895Z,39.33
2022-11-20T11:52:01.197Z,37.38
2022-11-20T11:54:35.404Z,22.90
2022-11-20T11:57:12.031Z,22.35
2022-11-20T11:59:53.552Z,23.20
2022-11-20T12:02:50.150Z,23.45
2022-11-20T12:05:30.094Z,22.92
2022-11-20T12:08:12.851Z,37.38
2022-11-20T12:11:26.146Z,28.35
2022-11-20T12:14:26.708Z,95.07
2022-11-20T12:16:56.107Z,115.47
2022-11-20T12:19:24.639Z,33.28
2022-11-20T12:22:43.423Z,75.38
2022-11-20T12:25:25.785Z,54.05
2022-11-20T12:28:12.655Z,37.05
2022-11-20T12:30:57.103Z,27.27
2022-11-20T12:34:00.485Z,27.10
2022-11-20T12:36:49.987Z,30.63
2022-11-20T12:39:18.218Z,21.30
2022-11-20T12:42:02.725Z,26.58
2022-11-20T12:44:52.711Z,23.83
2022-11-20T12:47:35.574Z,21.98
2022-11-20T12:50:26.183Z,29.45
2022-11-20T12:52:58.416Z,29.98
2022-11-20T12:55:30.097Z,27.88
2022-11-20T12:58:07.111Z,21.48
2022-11-20T13:00:37.426Z,25.38
2022-11-20T13:03:43.913Z,20.65
2022-11-20T13:06:15.593Z,23.38
2022-11-20T13:08:49.943Z,21.27
2022-11-20T13:11:41.320Z,36.50
2022-11-20T13:14:15.408Z,27.53
2022-11-20T13:16:50.016Z,25.60
2022-11-20T13:19:19.707Z,20.80
2022-11-20T13:21:51.935Z,19.45
2022-11-20T13:24:22.945Z,19.80
2022-11-20T13:27:13.944Z,21.93
2022-11-20T13:29:47.813Z,56.03
2022-11-20T13:32:17.911Z,30.00
2022-11-20T13:34:59.851Z,21.88
2022-11-20T13:37:35.726Z,24.38
2022-11-20T13:40:11.031Z,19.73
2022-11-20T13:42:56.250Z,32.28
2022-11-20T13:45:31.046Z,19.60
2022-11-20T13:48:03.791Z,24.48
2022-11-20T13:50:37.910Z,27.88
2022-11-20T13:53:30.947Z,46.78
2022-11-20T13:56:36.130Z,29.83
2022-11-20T13:59:43.094Z,28.08
2022-11-20T14:02:17.107Z,24.35
2022-11-20T14:04:49.706Z,25.77
2022-11-20T14:07:20.260Z,22.67
2022-11-20T14:09:53.986Z,22.20
2022-11-20T14:12:28.729Z,28.98
2022-11-20T14:14:57.438Z,36.65
2022-11-20T14:17:36.926Z,23.38
2022-11-20T14:20:15.065Z,30.92
2022-11-20T14:22:54.243Z,30.58
2022-11-20T14:25:27.465Z,15.13
2022-11-20T14:28:03.289Z,26.15
2022-11-20T14:30:45.953Z,22.20
2022-11-20T14:33:16.379Z,24.42
2022-11-20T14:35:49.977Z,31.48
2022-11-20T14:38:23.191Z,24.08
2022-11-20T14:40:51.421Z,26.25
2022-11-20T14:43:23.313Z,23.95
2022-11-20T14:46:10.373Z,28.60
2022-11-20T14:48:56.531Z,18.30
2022-11-20T14:51:42.012Z,14.40
2022-11-20T14:54:22.677Z,23.77
2022-11-20T14:56:57.868Z,30.02
2022-11-20T14:59:34.091Z,32.53
2022-11-20T15:02:10.948Z,21.83
2022-11-20T15:04:58.307Z,25.90
2022-11-20T15:07:28.437Z,24.17
2022-11-20T15:10:08.510Z,28.90
2022-11-20T15:12:58.235Z,29.88
2022-11-20T15:16:07.920Z,36.20
2022-11-20T15:18:41.616Z,35.53
2022-11-20T15:21:15.317Z,22.65
2022-11-20T15:23:44.147Z,21.40
2022-11-20T15:26:19.438Z,16.63
2022-11-20T15:28:50.192Z,23.17
2022-11-20T15:31:20.915Z,12.55
2022-11-20T15:33:49.861Z,18.00
2022-11-20T15:36:18.552Z,21.73
2022-11-20T15:38:46.540Z,31.42
2022-11-20T15:41:14.973Z,27.05
2022-11-20T15:43:43.262Z,22.65
2022-11-20T15:46:15.578Z,14.48
2022-11-20T15:48:52.209Z,47.72
2022-11-20T15:51:36.562Z,26.20
2022-11-20T15:54:15.832Z,33.97
2022-11-20T15:56:44.173Z,44.20
2022-11-20T15:59:12.158Z,25.65
2022-11-20T16:01:40.425Z,39.63
2022-11-20T16:04:13.541Z,51.47
2022-11-20T16:06:41.882Z,42.05
2022-11-20T16:09:10.501Z,27.27
2022-11-20T16:11:38.932Z,35.55
2022-11-20T16:14:07.740Z,34.88
2022-11-20T16:16:38.128Z,26.27
2022-11-20T16:19:06.422Z,25.08
2022-11-20T16:21:34.878Z,27.75
2022-11-20T16:24:05.379Z,48.95
2022-11-20T16:26:34.686Z,24.70
2022-11-20T16:29:04.261Z,13.65
2022-11-20T16:31:32.649Z,19.65
2022-11-20T16:34:08.597Z,21.23
2022-11-20T16:36:42.418Z,25.90
2022-11-20T16:39:11.164Z,28.43
2022-11-20T16:41:39.689Z,19.25
2022-11-20T16:44:12.151Z,23.73
2022-11-20T16:46:40.310Z,174.73
2022-11-20T16:49:12.953Z,352.90
2022-11-20T16:51:41.266Z,433.67
2022-11-20T16:54:10.648Z,205.02
2022-11-20T16:56:39.062Z,124.57
2022-11-20T16:59:07.340Z,61.50
2022-11-20T17:01:35.556Z,41.58
2022-11-20T17:04:07.671Z,36.35
2022-11-20T17:06:38.393Z,25.40
2022-11-20T17:09:06.732Z,33.95
2022-11-20T17:11:34.960Z,41.00
2022-11-20T17:14:03.849Z,27.15
2022-11-20T17:16:32.433Z,36.75
2022-11-20T17:19:03.223Z,42.25
2022-11-20T17:21:33.936Z,39.28
2022-11-20T17:26:33.650Z,54.75
2022-11-20T17:29:07.484Z,31.60
2022-11-20T17:31:36.396Z,67.47
2022-11-20T17:34:05.696Z,302.83
2022-11-20T17:36:34.478Z,223.63
2022-11-20T17:39:02.696Z,97.57
2022-11-20T17:41:31.158Z,326.73
2022-11-20T17:44:01.548Z,82.10
2022-11-20T17:46:34.464Z,212.93
2022-11-20T17:49:04.315Z,69.78
2022-11-20T17:51:34.351Z,64.72
2022-11-20T17:54:05.373Z,66.00
2022-11-20T17:56:34.693Z,85.28
2022-11-20T17:59:11.365Z,46.25
2022-11-20T18:01:40.703Z,76.35
2022-11-20T18:04:09.133Z,45.88
2022-11-20T18:06:37.986Z,35.20
2022-11-20T18:09:06.885Z,40.08
2022-11-20T18:11:44.369Z,38.58
2022-11-20T18:14:15.685Z,39.25
2022-11-20T18:16:58.440Z,39.38
2022-11-20T18:19:32.445Z,63.78
2022-11-20T18:22:02.958Z,65.85
2022-11-20T18:24:32.381Z,64.00
2022-11-20T18:27:00.732Z,44.03
2022-11-20T18:29:29.594Z,53.38
2022-11-20T18:31:58.601Z,45.45
2022-11-20T18:34:27.558Z,40.85
2022-11-20T18:36:56.116Z,53.88
2022-11-20T18:39:24.734Z,47.63
2022-11-20T18:41:53.614Z,74.22
2022-11-20T18:44:25.488Z,57.72
2022-11-20T18:49:22.439Z,45.58
2022-11-20T18:51:50.758Z,59.05
2022-11-20T18:54:19.440Z,63.75
2022-11-20T18:56:47.740Z,68.00
2022-11-20T18:59:16.263Z,69.78
2022-11-20T19:01:45.452Z,45.78
2022-11-20T19:04:16.750Z,26.80
2022-11-20T19:06:46.567Z,42.17
2022-11-20T19:09:15.437Z,36.63
2022-11-20T19:11:44.136Z,48.08
2022-11-20T19:14:12.531Z,61.22
2022-11-20T19:16:41.089Z,59.33
2022-11-20T19:19:10.494Z,55.97
2022-11-20T19:21:38.972Z,58.42
2022-11-20T19:24:07.663Z,49.30
2022-11-20T19:26:37.503Z,62.85
2022-11-20T19:29:06.753Z,60.95
2022-11-20T19:31:35.006Z,45.53
2022-11-20T19:34:05.094Z,65.60
2022-11-20T19:36:38.076Z,63.83
2022-11-20T19:39:10.682Z,74.18
2022-11-20T19:41:41.309Z,111.47
2022-11-20T19:44:15.083Z,115.97
2022-11-20T19:46:44.015Z,77.90
2022-11-20T19:49:14.586Z,58.42
2022-11-20T19:51:49.778Z,69.53
2022-11-20T19:54:18.654Z,66.07
2022-11-20T19:56:47.079Z,52.20
2022-11-20T19:59:15.787Z,46.72
2022-11-20T20:01:44.274Z,56.00
2022-11-20T20:04:12.963Z,68.00
2022-11-20T20:06:41.510Z,53.22
2022-11-20T20:09:12.832Z,53.42
2022-11-20T20:11:45.106Z,41.60
2022-11-20T20:14:15.616Z,51.80
2022-11-20T20:16:44.381Z,44.40
2022-11-20T20:19:15.400Z,44.88
2022-11-20T20:21:44.216Z,98.53
2022-11-20T20:24:12.741Z,122.57
2022-11-20T20:26:41.489Z,89.45
2022-11-20T20:29:10.000Z,62.63
2022-11-20T20:31:38.575Z,55.25
2022-11-20T20:34:07.349Z,43.72
2022-11-20T20:36:35.763Z,45.13
2022-11-20T20:39:04.570Z,31.88
2022-11-20T20:41:32.836Z,44.35
2022-11-20T20:44:02.585Z,52.78
2022-11-20T20:46:31.369Z,43.10
2022-11-20T20:49:01.090Z,36.67
2022-11-20T20:51:29.622Z,45.08
2022-11-20T20:53:58.237Z,46.35
2022-11-20T20:56:26.846Z,40.70
2022-11-20T20:58:55.452Z,33.33
2022-11-20T21:01:24.029Z,39.75
2022-11-20T21:03:52.642Z,31.27
2022-11-20T21:06:21.003Z,40.58
2022-11-20T21:08:49.752Z,33.42
2022-11-20T21:11:20.630Z,50.75
2022-11-20T21:13:50.262Z,81.25
2022-11-20T21:16:20.238Z,69.70
2022-11-20T21:18:49.158Z,65.88
2022-11-20T21:21:18.545Z,45.17
2022-11-20T21:23:48.354Z,44.80
2022-11-20T21:26:17.054Z,42.80
2022-11-20T21:28:46.171Z,41.78
2022-11-20T21:31:17.636Z,39.72
2022-11-20T21:33:51.042Z,49.03
2022-11-20T21:36:21.704Z,51.05
2022-11-20T21:38:52.533Z,49.38
2022-11-20T21:41:20.908Z,43.20
2022-11-20T21:47:01.178Z,49.72
2022-11-20T21:49:29.604Z,43.05
2022-11-20T21:51:58.026Z,41.47
2022-11-20T21:54:26.814Z,55.55
2022-11-20T21:56:55.481Z,56.00
2022-11-20T21:59:24.401Z,80.07
2022-11-20T22:01:52.814Z,95.35
2022-11-20T22:04:21.544Z,103.60
2022-11-20T22:06:50.017Z,70.93
2022-11-20T22:09:18.425Z,62.33
2022-11-20T22:11:46.976Z,62.28
2022-11-20T22:14:15.458Z,47.25
2022-11-20T22:16:44.087Z,55.72
2022-11-20T22:19:12.897Z,61.25
2022-11-20T22:21:41.275Z,49.50
2022-11-20T22:24:13.557Z,51.60
2022-11-20T22:26:42.258Z,62.78
2022-11-20T22:29:16.862Z,69.75
2022-11-20T22:31:45.538Z,65.10
2022-11-20T22:34:14.883Z,74.13
2022-11-20T22:36:43.484Z,60.90
2022-11-20T22:39:11.799Z,48.75
2022-11-20T22:41:40.291Z,68.57
2022-11-20T22:44:09.530Z,42.45
2022-11-20T22:46:38.191Z,73.88
2022-11-20T22:49:08.924Z,77.00
2022-11-20T22:51:39.783Z,69.80
2022-11-20T22:54:11.207Z,81.47
2022-11-20T22:56:39.853Z,86.18
2022-11-20T22:59:08.270Z,81.05
2022-11-20T23:01:37.359Z,91.10
2022-11-20T23:04:08.136Z,80.03
2022-11-20T23:06:36.910Z,95.80
2022-11-20T23:09:06.637Z,88.97
2022-11-20T23:11:35.501Z,103.93
2022-11-20T23:14:06.854Z,115.82
2022-11-20T23:16:35.674Z,114.47
2022-11-20T23:19:10.327Z,96.65
2022-11-20T23:21:40.441Z,113.32
2022-11-20T23:24:10.414Z,97.03
2022-11-20T23:26:41.320Z,97.00
2022-11-20T23:29:09.878Z,125.90
2022-11-20T23:31:38.376Z,146.60
2022-11-20T23:34:06.908Z,137.85
2022-11-20T23:36:35.251Z,150.75
2022-11-20T23:39:03.708Z,150.63
2022-11-20T23:41:32.195Z,153.27
2022-11-20T23:44:00.604Z,125.93
2022-11-20T23:46:29.051Z,124.47
2022-11-20T23:48:57.512Z,174.23
2022-11-20T23:51:26.007Z,144.25
2022-11-20T23:53:54.774Z,128.15
2022-11-20T23:56:23.069Z,128.35
2022-11-20T23:58:51.558Z,135.23
